Kezdőlap
METAR-TAF:

METAR-TAF

Repülőterek :

Harbin, Kína

földrajzi szélesség: 45-45N, földrajzi hosszúság: 126-46E, magasság: 143 m

Jelenlegi meteorológiai megfigyelések

A jelentés 33 perccel ezelõtt készült, 23:00 UTC
Nyugat-északnyugati szél 6 kt
Hőmérséklet 2°C
Páratartalom 69%
Légköri nyomás 1016 hPa
Látótávolság 10 km, vagy több
felhőtlen 1500 m magasságban, és nincs gomolyfelhõ

METAR: ZYHB 242300Z 30003MPS CAVOK 02/M03 Q1016 NOSIG

Idő: 07:33 (23:33 UTC)

Előrejelzés

A jelentés 8 órával és 31 perccel ezelõtt készült, 15:02 UTC
Az előrejelzés 24-én 18 óra UTC és 25-én 18 óra UTC között érvényes
Nyugati szél 8 kt
Látótávolság: 6000 m
Kevés felhő 3300 lábon

TAF: ZYHB 241502Z 2418/2518 28004MPS 6000 FEW033 TX11/2506Z TNM01/2421Z

Meteorológiai megfigyelések és előrejelzések több, mint 4000 repülőtéren (METAR és TAF jelentéseket).

A térképen piros és sárga pontok jelzik az elérhető meteorológiai állomásokat.

Mozgassa az egeret a pont fölött, hogy megjelenjen az állomás neve.

Azután kattintson az időjárási megfigyelések és előrejelzések megtekintéséhez.

A térkép megváltoztatása: kattintson a fekete keresztel jelölt zöld gombra ráközelítéshez, a vonallal jelölt zöld gombra távolításhoz, vagy a zöld nyilakra a szomszédos térképek eléréséhez.


METAR-TAF: